Terminal Aerodrome Forecast
Issued by NWS Paducah, KY

Home | Current Version | Previous Version | Text Only | Print | Product List | Glossary Off
Versions: 1 2 3 4 5 6 7 8 9 10 11 12 13 14 15 16 17

000
FTUS43 KPAH 261700
TAFEVV
TAF
KEVV 261729Z 2618/2718 20010G20KT P6SM SCT045 BKN250
     FM270000 17006KT P6SM FEW050 BKN150
     FM270600 17005KT P6SM BKN050 PROB30 2710/2714 -SHRA BKN025
     FM271400 18006KT 4SM SHRA BR OVC015=

USA.gov is the U.S. government's official web portal to all federal, state and local government web resources and services.